sensor_id;sensor_type;location;lat;lon;timestamp;pressure;altitude;pressure_sealevel;temperature;humidity
54816;BME280;40715;55.752;37.884;2022-08-16T00:00:15;99703.78;;;22.96;44.60
54816;BME280;40715;55.752;37.884;2022-08-16T00:02:46;99705.69;;;22.94;44.32
54816;BME280;40715;55.752;37.884;2022-08-16T00:05:13;99707.78;;;22.90;44.29
54816;BME280;40715;55.752;37.884;2022-08-16T00:07:41;99697.34;;;22.86;44.51
54816;BME280;40715;55.752;37.884;2022-08-16T00:10:11;99704.31;;;22.88;44.71
54816;BME280;40715;55.752;37.884;2022-08-16T00:12:46;99703.47;;;22.88;44.31
54816;BME280;40715;55.752;37.884;2022-08-16T00:15:20;99697.56;;;22.83;44.36
54816;BME280;40715;55.752;37.884;2022-08-16T00:17:47;99699.50;;;22.81;44.69
54816;BME280;40715;55.752;37.884;2022-08-16T00:20:22;99708.41;;;22.81;44.55
54816;BME280;40715;55.752;37.884;2022-08-16T00:22:50;99703.16;;;22.80;44.50
54816;BME280;40715;55.752;37.884;2022-08-16T00:25:19;99713.78;;;22.81;44.43
54816;BME280;40715;55.752;37.884;2022-08-16T00:28:00;99702.81;;;22.84;44.39
54816;BME280;40715;55.752;37.884;2022-08-16T00:30:27;99692.66;;;22.77;44.36
54816;BME280;40715;55.752;37.884;2022-08-16T00:32:57;99696.06;;;22.79;44.47
54816;BME280;40715;55.752;37.884;2022-08-16T00:35:29;99703.81;;;22.83;44.46
54816;BME280;40715;55.752;37.884;2022-08-16T00:37:56;99699.50;;;22.81;44.28
54816;BME280;40715;55.752;37.884;2022-08-16T00:43:02;99691.69;;;22.78;44.17
54816;BME280;40715;55.752;37.884;2022-08-16T00:45:34;99688.88;;;22.79;44.05
54816;BME280;40715;55.752;37.884;2022-08-16T00:48:05;99692.41;;;22.80;44.25
54816;BME280;40715;55.752;37.884;2022-08-16T00:50:53;99696.84;;;22.81;43.83
54816;BME280;40715;55.752;37.884;2022-08-16T00:53:20;99697.06;;;22.78;44.11
54816;BME280;40715;55.752;37.884;2022-08-16T00:55:51;99708.66;;;22.78;44.35
54816;BME280;40715;55.752;37.884;2022-08-16T00:58:20;99708.00;;;22.74;44.33
54816;BME280;40715;55.752;37.884;2022-08-16T01:00:57;99717.25;;;22.70;44.38
54816;BME280;40715;55.752;37.884;2022-08-16T01:03:26;99715.88;;;22.65;44.93
54816;BME280;40715;55.752;37.884;2022-08-16T01:05:55;99708.22;;;22.58;45.05
54816;BME280;40715;55.752;37.884;2022-08-16T01:08:23;99706.72;;;22.54;45.19
54816;BME280;40715;55.752;37.884;2022-08-16T01:11:03;99697.63;;;22.44;45.41
54816;BME280;40715;55.752;37.884;2022-08-16T01:13:33;99708.34;;;22.44;45.65
54816;BME280;40715;55.752;37.884;2022-08-16T01:16:05;99714.91;;;22.40;45.56
54816;BME280;40715;55.752;37.884;2022-08-16T01:27:13;99711.97;;;22.17;46.00
54816;BME280;40715;55.752;37.884;2022-08-16T01:29:48;99727.97;;;22.19;46.33
54816;BME280;40715;55.752;37.884;2022-08-16T01:32:24;99722.06;;;22.14;46.29
54816;BME280;40715;55.752;37.884;2022-08-16T01:34:57;99723.34;;;22.08;46.55
54816;BME280;40715;55.752;37.884;2022-08-16T01:37:24;99727.94;;;22.06;46.79
54816;BME280;40715;55.752;37.884;2022-08-16T01:39:51;99722.78;;;22.03;46.96
54816;BME280;40715;55.752;37.884;2022-08-16T01:42:18;99717.44;;;22.03;46.81
54816;BME280;40715;55.752;37.884;2022-08-16T01:44:46;99717.53;;;22.01;46.61
54816;BME280;40715;55.752;37.884;2022-08-16T01:47:13;99726.53;;;22.00;46.92
54816;BME280;40715;55.752;37.884;2022-08-16T01:49:41;99722.44;;;21.95;47.37
54816;BME280;40715;55.752;37.884;2022-08-16T01:52:30;99722.88;;;21.88;47.46
54816;BME280;40715;55.752;37.884;2022-08-16T01:54:58;99724.03;;;21.84;47.70
54816;BME280;40715;55.752;37.884;2022-08-16T01:57:25;99728.78;;;21.81;47.65
54816;BME280;40715;55.752;37.884;2022-08-16T01:59:53;99719.31;;;21.75;47.73
54816;BME280;40715;55.752;37.884;2022-08-16T02:02:21;99711.78;;;21.67;48.06
54816;BME280;40715;55.752;37.884;2022-08-16T02:04:53;99706.63;;;21.64;48.17
54816;BME280;40715;55.752;37.884;2022-08-16T02:07:20;99721.66;;;21.67;47.96
54816;BME280;40715;55.752;37.884;2022-08-16T02:09:49;99718.88;;;21.68;48.31
54816;BME280;40715;55.752;37.884;2022-08-16T02:12:23;99723.38;;;21.68;48.05
54816;BME280;40715;55.752;37.884;2022-08-16T02:15:06;99731.22;;;21.71;48.22
54816;BME280;40715;55.752;37.884;2022-08-16T02:17:34;99716.19;;;21.68;48.00
54816;BME280;40715;55.752;37.884;2022-08-16T02:20:01;99723.91;;;21.73;47.97
54816;BME280;40715;55.752;37.884;2022-08-16T02:22:28;99707.28;;;21.68;48.05
54816;BME280;40715;55.752;37.884;2022-08-16T02:24:58;99719.75;;;21.82;48.00
54816;BME280;40715;55.752;37.884;2022-08-16T02:27:25;99729.22;;;22.00;47.53
54816;BME280;40715;55.752;37.884;2022-08-16T02:29:52;99726.47;;;22.02;47.83
54816;BME280;40715;55.752;37.884;2022-08-16T02:32:30;99731.06;;;22.13;47.30
54816;BME280;40715;55.752;37.884;2022-08-16T02:35:15;99727.66;;;22.23;47.14
54816;BME280;40715;55.752;37.884;2022-08-16T02:37:42;99731.75;;;22.29;47.12
54816;BME280;40715;55.752;37.884;2022-08-16T02:40:17;99737.66;;;22.34;46.99
54816;BME280;40715;55.752;37.884;2022-08-16T02:42:47;99735.84;;;22.35;46.93
54816;BME280;40715;55.752;37.884;2022-08-16T02:45:16;99732.97;;;22.38;46.56
54816;BME280;40715;55.752;37.884;2022-08-16T02:47:43;99735.97;;;22.46;46.63
54816;BME280;40715;55.752;37.884;2022-08-16T02:50:27;99724.13;;;22.49;46.33
54816;BME280;40715;55.752;37.884;2022-08-16T02:53:14;99731.66;;;22.56;46.09
54816;BME280;40715;55.752;37.884;2022-08-16T02:55:43;99721.16;;;22.40;46.41
54816;BME280;40715;55.752;37.884;2022-08-16T02:58:11;99732.97;;;22.51;46.44
54816;BME280;40715;55.752;37.884;2022-08-16T03:00:39;99694.94;;;22.44;46.26
54816;BME280;40715;55.752;37.884;2022-08-16T03:03:06;99737.13;;;22.81;46.07
54816;BME280;40715;55.752;37.884;2022-08-16T03:05:36;99745.88;;;22.96;45.71
54816;BME280;40715;55.752;37.884;2022-08-16T03:08:03;99746.53;;;23.12;45.60
54816;BME280;40715;55.752;37.884;2022-08-16T03:10:30;99748.34;;;23.24;45.24
54816;BME280;40715;55.752;37.884;2022-08-16T03:12:59;99741.81;;;23.40;45.06
54816;BME280;40715;55.752;37.884;2022-08-16T03:15:26;99748.19;;;23.63;44.62
54816;BME280;40715;55.752;37.884;2022-08-16T03:17:54;99738.72;;;23.82;44.11
54816;BME280;40715;55.752;37.884;2022-08-16T03:20:22;99745.91;;;24.05;43.73
54816;BME280;40715;55.752;37.884;2022-08-16T03:22:57;99743.16;;;24.29;43.22
54816;BME280;40715;55.752;37.884;2022-08-16T03:25:24;99751.06;;;24.67;43.03
54816;BME280;40715;55.752;37.884;2022-08-16T03:27:51;99739.78;;;25.07;41.80
54816;BME280;40715;55.752;37.884;2022-08-16T03:30:22;99749.41;;;25.55;40.95
54816;BME280;40715;55.752;37.884;2022-08-16T03:32:50;99752.69;;;25.91;40.43
54816;BME280;40715;55.752;37.884;2022-08-16T03:35:20;99762.97;;;26.29;39.76
54816;BME280;40715;55.752;37.884;2022-08-16T03:37:51;99753.44;;;26.77;38.68
54816;BME280;40715;55.752;37.884;2022-08-16T03:40:29;99757.47;;;27.33;37.80
54816;BME280;40715;55.752;37.884;2022-08-16T03:43:00;99757.72;;;28.00;36.87
54816;BME280;40715;55.752;37.884;2022-08-16T03:45:46;99759.72;;;28.85;36.39
54816;BME280;40715;55.752;37.884;2022-08-16T03:48:13;99757.91;;;29.59;34.78
54816;BME280;40715;55.752;37.884;2022-08-16T03:50:40;99758.25;;;30.36;33.05
54816;BME280;40715;55.752;37.884;2022-08-16T03:53:07;99735.78;;;31.13;31.89
54816;BME280;40715;55.752;37.884;2022-08-16T03:55:34;99754.34;;;32.18;30.75
54816;BME280;40715;55.752;37.884;2022-08-16T03:58:11;99763.88;;;33.11;29.88
54816;BME280;40715;55.752;37.884;2022-08-16T04:00:38;99762.28;;;33.88;28.37
54816;BME280;40715;55.752;37.884;2022-08-16T04:03:06;99765.28;;;34.54;27.38
54816;BME280;40715;55.752;37.884;2022-08-16T04:05:41;99765.97;;;35.31;26.07
54816;BME280;40715;55.752;37.884;2022-08-16T04:08:09;99768.75;;;35.89;25.48
54816;BME280;40715;55.752;37.884;2022-08-16T04:10:51;99771.41;;;36.54;24.49
54816;BME280;40715;55.752;37.884;2022-08-16T04:13:19;99771.13;;;37.12;23.41
54816;BME280;40715;55.752;37.884;2022-08-16T04:16:07;99780.00;;;37.70;22.95
54816;BME280;40715;55.752;37.884;2022-08-16T04:18:47;99768.47;;;38.14;22.06
54816;BME280;40715;55.752;37.884;2022-08-16T04:21:15;99768.06;;;38.44;21.87
54816;BME280;40715;55.752;37.884;2022-08-16T04:23:49;99776.22;;;39.05;21.24
54816;BME280;40715;55.752;37.884;2022-08-16T04:26:16;99784.09;;;39.46;20.25
54816;BME280;40715;55.752;37.884;2022-08-16T04:28:43;99784.56;;;39.82;19.75
54816;BME280;40715;55.752;37.884;2022-08-16T04:31:20;99780.91;;;40.20;19.15
54816;BME280;40715;55.752;37.884;2022-08-16T04:33:47;99788.56;;;40.43;18.96
54816;BME280;40715;55.752;37.884;2022-08-16T04:36:17;99781.13;;;40.87;18.26
54816;BME280;40715;55.752;37.884;2022-08-16T04:38:45;99793.53;;;41.40;17.80
54816;BME280;40715;55.752;37.884;2022-08-16T04:41:12;99791.69;;;41.95;17.49
54816;BME280;40715;55.752;37.884;2022-08-16T04:43:39;99791.94;;;42.17;16.90
54816;BME280;40715;55.752;37.884;2022-08-16T04:46:09;99793.34;;;42.50;16.21
54816;BME280;40715;55.752;37.884;2022-08-16T04:48:45;99800.06;;;43.02;16.15
54816;BME280;40715;55.752;37.884;2022-08-16T04:51:12;99801.41;;;43.40;15.57
54816;BME280;40715;55.752;37.884;2022-08-16T04:53:39;99784.03;;;43.56;15.28
54816;BME280;40715;55.752;37.884;2022-08-16T04:56:07;99797.34;;;44.00;15.05
54816;BME280;40715;55.752;37.884;2022-08-16T04:58:37;99804.44;;;44.42;14.85
54816;BME280;40715;55.752;37.884;2022-08-16T05:01:11;99805.19;;;44.71;14.61
54816;BME280;40715;55.752;37.884;2022-08-16T05:03:38;99809.06;;;44.92;14.14
54816;BME280;40715;55.752;37.884;2022-08-16T05:06:08;99811.84;;;44.92;14.14
54816;BME280;40715;55.752;37.884;2022-08-16T05:08:35;99802.88;;;45.29;13.80
54816;BME280;40715;55.752;37.884;2022-08-16T05:11:05;99797.25;;;45.96;13.51
54816;BME280;40715;55.752;37.884;2022-08-16T05:13:35;99801.31;;;46.15;12.83
54816;BME280;40715;55.752;37.884;2022-08-16T05:16:29;99803.88;;;46.22;13.49
54816;BME280;40715;55.752;37.884;2022-08-16T05:18:58;99799.25;;;46.76;12.31
54816;BME280;40715;55.752;37.884;2022-08-16T05:21:26;99799.91;;;46.93;12.09
54816;BME280;40715;55.752;37.884;2022-08-16T05:24:01;99800.31;;;47.12;12.57
54816;BME280;40715;55.752;37.884;2022-08-16T05:26:30;99804.13;;;47.75;11.92
54816;BME280;40715;55.752;37.884;2022-08-16T05:28:59;99805.31;;;48.15;11.82
54816;BME280;40715;55.752;37.884;2022-08-16T05:31:29;99803.91;;;48.53;11.15
54816;BME280;40715;55.752;37.884;2022-08-16T05:33:58;99787.56;;;49.02;10.98
54816;BME280;40715;55.752;37.884;2022-08-16T05:36:26;99791.22;;;49.57;10.31
54816;BME280;40715;55.752;37.884;2022-08-16T05:39:00;99815.44;;;50.17;10.24
54816;BME280;40715;55.752;37.884;2022-08-16T05:41:27;99814.50;;;50.56;9.78
54816;BME280;40715;55.752;37.884;2022-08-16T05:43:54;99818.31;;;50.95;9.77
54816;BME280;40715;55.752;37.884;2022-08-16T05:46:25;99812.53;;;51.30;9.21
54816;BME280;40715;55.752;37.884;2022-08-16T05:48:54;99812.22;;;51.36;9.07
54816;BME280;40715;55.752;37.884;2022-08-16T05:51:23;99817.75;;;51.79;8.98
54816;BME280;40715;55.752;37.884;2022-08-16T05:54:00;99823.28;;;52.37;8.67
54816;BME280;40715;55.752;37.884;2022-08-16T05:56:27;99813.47;;;52.67;8.55
54816;BME280;40715;55.752;37.884;2022-08-16T05:58:54;99814.72;;;52.75;8.37
54816;BME280;40715;55.752;37.884;2022-08-16T06:01:21;99806.81;;;53.05;8.16
54816;BME280;40715;55.752;37.884;2022-08-16T06:03:48;99816.47;;;53.40;7.91
54816;BME280;40715;55.752;37.884;2022-08-16T06:06:15;99816.81;;;53.98;7.60
54816;BME280;40715;55.752;37.884;2022-08-16T06:08:53;99801.53;;;54.76;7.37
54816;BME280;40715;55.752;37.884;2022-08-16T06:11:20;99803.16;;;55.17;6.58
54816;BME280;40715;55.752;37.884;2022-08-16T06:13:47;99812.19;;;55.72;6.94
54816;BME280;40715;55.752;37.884;2022-08-16T06:16:14;99809.19;;;55.85;6.74
54816;BME280;40715;55.752;37.884;2022-08-16T06:18:44;99807.34;;;56.07;6.27
54816;BME280;40715;55.752;37.884;2022-08-16T06:21:12;99802.06;;;55.71;6.12
54816;BME280;40715;55.752;37.884;2022-08-16T06:23:40;99803.91;;;55.66;6.42
54816;BME280;40715;55.752;37.884;2022-08-16T06:26:07;99796.66;;;56.22;6.06
54816;BME280;40715;55.752;37.884;2022-08-16T06:28:34;99809.59;;;56.87;5.92
54816;BME280;40715;55.752;37.884;2022-08-16T06:31:04;99805.28;;;57.11;5.71
54816;BME280;40715;55.752;37.884;2022-08-16T06:33:31;99806.41;;;57.19;5.53
54816;BME280;40715;55.752;37.884;2022-08-16T06:36:08;99801.69;;;57.53;5.23
54816;BME280;40715;55.752;37.884;2022-08-16T06:38:36;99810.44;;;57.39;4.94
54816;BME280;40715;55.752;37.884;2022-08-16T06:41:07;99802.31;;;56.78;5.11
54816;BME280;40715;55.752;37.884;2022-08-16T06:43:38;99797.44;;;56.48;5.66
54816;BME280;40715;55.752;37.884;2022-08-16T06:46:07;99803.13;;;56.78;5.51
54816;BME280;40715;55.752;37.884;2022-08-16T06:48:36;99784.78;;;57.14;5.19
54816;BME280;40715;55.752;37.884;2022-08-16T06:51:08;99801.72;;;57.23;4.95
54816;BME280;40715;55.752;37.884;2022-08-16T06:53:35;99799.84;;;57.06;5.38
54816;BME280;40715;55.752;37.884;2022-08-16T06:56:05;99800.78;;;57.61;4.83
54816;BME280;40715;55.752;37.884;2022-08-16T06:58:40;99809.09;;;58.00;4.55
54816;BME280;40715;55.752;37.884;2022-08-16T07:01:08;99803.13;;;57.59;4.69
54816;BME280;40715;55.752;37.884;2022-08-16T07:03:40;99796.66;;;57.59;4.69
54816;BME280;40715;55.752;37.884;2022-08-16T07:06:21;99799.50;;;57.92;4.50
54816;BME280;40715;55.752;37.884;2022-08-16T07:08:52;99786.03;;;57.47;4.20
54816;BME280;40715;55.752;37.884;2022-08-16T07:11:19;99815.25;;;57.17;4.31
54816;BME280;40715;55.752;37.884;2022-08-16T07:14:07;99790.53;;;57.48;4.29
54816;BME280;40715;55.752;37.884;2022-08-16T07:16:53;99782.34;;;57.55;4.77
54816;BME280;40715;55.752;37.884;2022-08-16T07:19:20;99774.88;;;57.29;4.16
54816;BME280;40715;55.752;37.884;2022-08-16T07:21:47;99782.50;;;57.92;3.85
54816;BME280;40715;55.752;37.884;2022-08-16T07:24:19;99790.19;;;58.62;3.25
54816;BME280;40715;55.752;37.884;2022-08-16T07:26:52;99800.63;;;58.12;4.17
54816;BME280;40715;55.752;37.884;2022-08-16T07:29:19;99780.66;;;58.09;4.35
54816;BME280;40715;55.752;37.884;2022-08-16T07:31:46;99790.41;;;59.19;3.95
54816;BME280;40715;55.752;37.884;2022-08-16T07:34:13;99794.56;;;58.60;3.18
54816;BME280;40715;55.752;37.884;2022-08-16T07:36:40;99783.06;;;57.22;4.22
54816;BME280;40715;55.752;37.884;2022-08-16T07:39:07;99781.63;;;56.86;4.38
54816;BME280;40715;55.752;37.884;2022-08-16T07:41:34;99797.00;;;56.38;4.74
54816;BME280;40715;55.752;37.884;2022-08-16T07:44:02;99788.25;;;55.51;4.74
54816;BME280;40715;55.752;37.884;2022-08-16T07:46:29;99776.25;;;55.20;5.32
54816;BME280;40715;55.752;37.884;2022-08-16T07:49:05;99775.59;;;56.01;4.43
54816;BME280;40715;55.752;37.884;2022-08-16T07:51:34;99781.66;;;56.39;4.86
54816;BME280;40715;55.752;37.884;2022-08-16T07:54:04;99783.41;;;57.20;4.45
54816;BME280;40715;55.752;37.884;2022-08-16T07:56:35;99793.50;;;57.72;4.27
54816;BME280;40715;55.752;37.884;2022-08-16T07:59:03;99786.28;;;57.96;3.74
54816;BME280;40715;55.752;37.884;2022-08-16T08:01:30;99780.28;;;58.56;3.76
54816;BME280;40715;55.752;37.884;2022-08-16T08:03:58;99795.31;;;59.47;3.83
54816;BME280;40715;55.752;37.884;2022-08-16T08:06:27;99780.16;;;59.14;3.60
54816;BME280;40715;55.752;37.884;2022-08-16T08:08:55;99784.09;;;59.38;3.41
54816;BME280;40715;55.752;37.884;2022-08-16T08:11:23;99785.88;;;59.42;3.75
54816;BME280;40715;55.752;37.884;2022-08-16T08:13:52;99781.31;;;60.10;3.57
54816;BME280;40715;55.752;37.884;2022-08-16T08:16:20;99764.63;;;58.25;3.82
54816;BME280;40715;55.752;37.884;2022-08-16T08:18:48;99767.50;;;59.12;3.96
54816;BME280;40715;55.752;37.884;2022-08-16T08:21:23;99774.41;;;59.96;3.71
54816;BME280;40715;55.752;37.884;2022-08-16T08:23:52;99761.94;;;60.80;3.42
54816;BME280;40715;55.752;37.884;2022-08-16T08:26:18;99772.09;;;60.30;2.80
54816;BME280;40715;55.752;37.884;2022-08-16T08:28:47;99758.59;;;60.42;3.22
54816;BME280;40715;55.752;37.884;2022-08-16T08:31:15;99775.00;;;61.75;2.12
54816;BME280;40715;55.752;37.884;2022-08-16T08:33:43;99781.59;;;60.21;3.00
54816;BME280;40715;55.752;37.884;2022-08-16T08:36:16;99778.38;;;60.07;3.39
54816;BME280;40715;55.752;37.884;2022-08-16T08:38:47;99790.81;;;60.63;2.70
54816;BME280;40715;55.752;37.884;2022-08-16T08:41:18;99775.63;;;59.82;2.87
54816;BME280;40715;55.752;37.884;2022-08-16T08:43:46;99760.63;;;58.26;3.28
54816;BME280;40715;55.752;37.884;2022-08-16T08:46:17;99778.88;;;56.30;4.41
54816;BME280;40715;55.752;37.884;2022-08-16T08:48:47;99753.56;;;55.33;4.70
54816;BME280;40715;55.752;37.884;2022-08-16T08:51:26;99752.63;;;57.19;4.14
54816;BME280;40715;55.752;37.884;2022-08-16T08:53:53;99766.59;;;58.83;3.75
54816;BME280;40715;55.752;37.884;2022-08-16T08:56:23;99757.72;;;59.37;3.11
54816;BME280;40715;55.752;37.884;2022-08-16T08:58:52;99753.59;;;60.71;2.91
54816;BME280;40715;55.752;37.884;2022-08-16T09:01:31;99758.13;;;62.09;2.10
54816;BME280;40715;55.752;37.884;2022-08-16T09:04:04;99762.44;;;62.23;2.06
54816;BME280;40715;55.752;37.884;2022-08-16T09:06:32;99759.03;;;62.37;2.17
54816;BME280;40715;55.752;37.884;2022-08-16T09:09:00;99771.88;;;62.77;1.98
54816;BME280;40715;55.752;37.884;2022-08-16T09:11:27;99761.50;;;62.38;2.05
54816;BME280;40715;55.752;37.884;2022-08-16T09:13:59;99764.03;;;63.61;1.53
54816;BME280;40715;55.752;37.884;2022-08-16T09:16:27;99761.94;;;64.33;1.08
54816;BME280;40715;55.752;37.884;2022-08-16T09:19:14;99789.13;;;64.61;1.57
54816;BME280;40715;55.752;37.884;2022-08-16T09:21:41;99775.72;;;63.83;1.02
54816;BME280;40715;55.752;37.884;2022-08-16T09:24:08;99774.91;;;63.82;1.15
54816;BME280;40715;55.752;37.884;2022-08-16T09:26:35;99760.22;;;61.31;1.86
54816;BME280;40715;55.752;37.884;2022-08-16T09:29:11;99745.34;;;58.18;3.42
54816;BME280;40715;55.752;37.884;2022-08-16T09:31:42;99732.38;;;58.91;3.02
54816;BME280;40715;55.752;37.884;2022-08-16T09:34:09;99732.00;;;59.46;2.63
54816;BME280;40715;55.752;37.884;2022-08-16T09:36:37;99740.16;;;59.48;3.49
54816;BME280;40715;55.752;37.884;2022-08-16T09:39:10;99733.09;;;58.39;3.11
54816;BME280;40715;55.752;37.884;2022-08-16T09:41:41;99730.53;;;54.91;5.07
54816;BME280;40715;55.752;37.884;2022-08-16T09:44:08;99730.91;;;52.16;6.13
54816;BME280;40715;55.752;37.884;2022-08-16T09:46:55;99722.06;;;47.91;7.81
54816;BME280;40715;55.752;37.884;2022-08-16T09:49:23;99709.00;;;44.92;10.09
54816;BME280;40715;55.752;37.884;2022-08-16T09:51:51;99717.47;;;43.27;11.09
54816;BME280;40715;55.752;37.884;2022-08-16T09:54:21;99715.91;;;41.96;11.75
54816;BME280;40715;55.752;37.884;2022-08-16T09:56:49;99667.97;;;40.81;12.65
54816;BME280;40715;55.752;37.884;2022-08-16T09:59:17;99691.63;;;40.33;13.21
54816;BME280;40715;55.752;37.884;2022-08-16T10:01:44;99700.88;;;39.95;13.63
54816;BME280;40715;55.752;37.884;2022-08-16T10:04:14;99702.53;;;39.39;14.33
54816;BME280;40715;55.752;37.884;2022-08-16T10:06:55;99707.09;;;38.54;14.79
54816;BME280;40715;55.752;37.884;2022-08-16T10:09:23;99695.91;;;37.89;15.65
54816;BME280;40715;55.752;37.884;2022-08-16T10:11:50;99688.03;;;37.59;16.05
54816;BME280;40715;55.752;37.884;2022-08-16T10:14:37;99695.31;;;37.11;16.75
54816;BME280;40715;55.752;37.884;2022-08-16T10:17:06;99708.13;;;36.62;16.84
54816;BME280;40715;55.752;37.884;2022-08-16T10:19:34;99705.03;;;36.09;17.30
54816;BME280;40715;55.752;37.884;2022-08-16T10:22:01;99700.25;;;35.53;18.02
54816;BME280;40715;55.752;37.884;2022-08-16T10:24:31;99684.78;;;35.08;18.50
54816;BME280;40715;55.752;37.884;2022-08-16T10:26:58;99687.38;;;34.80;18.90
54816;BME280;40715;55.752;37.884;2022-08-16T10:29:46;99685.97;;;34.54;18.82
54816;BME280;40715;55.752;37.884;2022-08-16T10:32:28;99673.13;;;34.70;19.19
54816;BME280;40715;55.752;37.884;2022-08-16T10:34:56;99690.69;;;34.90;18.75
54816;BME280;40715;55.752;37.884;2022-08-16T10:37:23;99690.59;;;34.84;19.01
54816;BME280;40715;55.752;37.884;2022-08-16T10:39:58;99690.94;;;34.36;19.38
54816;BME280;40715;55.752;37.884;2022-08-16T10:42:29;99683.44;;;34.15;19.93
54816;BME280;40715;55.752;37.884;2022-08-16T10:44:56;99679.97;;;34.21;19.51
54816;BME280;40715;55.752;37.884;2022-08-16T10:47:23;99702.88;;;34.05;20.01
54816;BME280;40715;55.752;37.884;2022-08-16T10:49:50;99677.28;;;33.75;20.44
54816;BME280;40715;55.752;37.884;2022-08-16T10:52:17;99701.78;;;33.68;20.79
54816;BME280;40715;55.752;37.884;2022-08-16T10:54:45;99689.03;;;33.37;20.66
54816;BME280;40715;55.752;37.884;2022-08-16T10:57:32;99674.16;;;33.08;21.22
54816;BME280;40715;55.752;37.884;2022-08-16T11:00:00;99681.44;;;32.84;21.51
54816;BME280;40715;55.752;37.884;2022-08-16T11:02:31;99685.75;;;32.71;21.79
54816;BME280;40715;55.752;37.884;2022-08-16T11:05:18;99677.75;;;32.61;21.63
54816;BME280;40715;55.752;37.884;2022-08-16T11:07:49;99687.84;;;32.52;21.93
54816;BME280;40715;55.752;37.884;2022-08-16T11:10:22;99657.91;;;32.35;22.06
54816;BME280;40715;55.752;37.884;2022-08-16T11:13:15;99666.75;;;32.38;22.43
54816;BME280;40715;55.752;37.884;2022-08-16T11:16:04;99672.41;;;32.28;22.01
54816;BME280;40715;55.752;37.884;2022-08-16T11:18:51;99676.16;;;32.27;22.26
54816;BME280;40715;55.752;37.884;2022-08-16T11:21:28;99652.47;;;32.11;22.98
54816;BME280;40715;55.752;37.884;2022-08-16T11:23:56;99665.94;;;32.21;22.57
54816;BME280;40715;55.752;37.884;2022-08-16T11:26:24;99646.19;;;32.18;22.64
54816;BME280;40715;55.752;37.884;2022-08-16T11:28:51;99663.91;;;32.14;22.81
54816;BME280;40715;55.752;37.884;2022-08-16T11:31:42;99658.97;;;32.01;22.66
54816;BME280;40715;55.752;37.884;2022-08-16T11:34:15;99661.34;;;31.88;23.29
54816;BME280;40715;55.752;37.884;2022-08-16T11:36:45;99668.69;;;31.79;23.10
54816;BME280;40715;55.752;37.884;2022-08-16T11:39:19;99656.78;;;31.72;22.94
54816;BME280;40715;55.752;37.884;2022-08-16T11:41:46;99660.69;;;31.70;22.88
54816;BME280;40715;55.752;37.884;2022-08-16T11:44:14;99652.00;;;31.66;22.87
54816;BME280;40715;55.752;37.884;2022-08-16T11:46:46;99640.09;;;31.59;23.04
54816;BME280;40715;55.752;37.884;2022-08-16T11:49:13;99638.91;;;31.61;23.60
54816;BME280;40715;55.752;37.884;2022-08-16T11:51:42;99656.28;;;31.69;23.09
54816;BME280;40715;55.752;37.884;2022-08-16T11:54:13;99659.00;;;31.69;23.28
54816;BME280;40715;55.752;37.884;2022-08-16T11:56:46;99656.78;;;31.80;22.92
54816;BME280;40715;55.752;37.884;2022-08-16T11:59:17;99643.16;;;31.80;23.28
54816;BME280;40715;55.752;37.884;2022-08-16T12:01:45;99639.72;;;31.95;23.18
54816;BME280;40715;55.752;37.884;2022-08-16T12:04:21;99615.03;;;32.13;22.96
54816;BME280;40715;55.752;37.884;2022-08-16T12:06:49;99621.56;;;32.43;22.27
54816;BME280;40715;55.752;37.884;2022-08-16T12:09:19;99640.25;;;32.63;22.07
54816;BME280;40715;55.752;37.884;2022-08-16T12:11:46;99637.88;;;32.60;22.07
54816;BME280;40715;55.752;37.884;2022-08-16T12:14:19;99609.56;;;32.61;22.48
54816;BME280;40715;55.752;37.884;2022-08-16T12:16:53;99615.41;;;32.89;22.54
54816;BME280;40715;55.752;37.884;2022-08-16T12:19:23;99622.59;;;33.13;22.04
54816;BME280;40715;55.752;37.884;2022-08-16T12:22:00;99629.41;;;33.17;21.84
54816;BME280;40715;55.752;37.884;2022-08-16T12:24:27;99635.97;;;33.08;22.00
54816;BME280;40715;55.752;37.884;2022-08-16T12:26:56;99628.88;;;32.91;22.08
54816;BME280;40715;55.752;37.884;2022-08-16T12:29:23;99617.31;;;32.89;21.99
54816;BME280;40715;55.752;37.884;2022-08-16T12:31:51;99625.13;;;32.92;22.21
54816;BME280;40715;55.752;37.884;2022-08-16T12:34:22;99622.75;;;32.89;22.06
54816;BME280;40715;55.752;37.884;2022-08-16T12:36:54;99603.28;;;32.60;22.63
54816;BME280;40715;55.752;37.884;2022-08-16T12:39:21;99622.53;;;32.59;22.77
54816;BME280;40715;55.752;37.884;2022-08-16T12:41:48;99620.75;;;32.43;22.44
54816;BME280;40715;55.752;37.884;2022-08-16T12:44:14;99618.94;;;32.18;22.73
54816;BME280;40715;55.752;37.884;2022-08-16T12:46:47;99625.56;;;31.99;23.08
54816;BME280;40715;55.752;37.884;2022-08-16T12:49:34;99608.28;;;31.76;23.04
54816;BME280;40715;55.752;37.884;2022-08-16T12:52:08;99614.19;;;31.55;23.49
54816;BME280;40715;55.752;37.884;2022-08-16T12:54:34;99617.25;;;31.43;23.60
54816;BME280;40715;55.752;37.884;2022-08-16T12:57:07;99579.16;;;31.19;24.20
54816;BME280;40715;55.752;37.884;2022-08-16T12:59:39;99608.75;;;31.30;24.00
54816;BME280;40715;55.752;37.884;2022-08-16T13:02:07;99608.22;;;31.26;24.29
54816;BME280;40715;55.752;37.884;2022-08-16T13:04:38;99603.81;;;31.25;24.25
54816;BME280;40715;55.752;37.884;2022-08-16T13:07:05;99606.22;;;31.28;24.43
54816;BME280;40715;55.752;37.884;2022-08-16T13:09:34;99605.34;;;31.28;24.17
54816;BME280;40715;55.752;37.884;2022-08-16T13:12:09;99600.59;;;31.30;24.11
54816;BME280;40715;55.752;37.884;2022-08-16T13:14:50;99591.38;;;31.31;24.39
54816;BME280;40715;55.752;37.884;2022-08-16T13:17:20;99598.72;;;31.39;24.53
54816;BME280;40715;55.752;37.884;2022-08-16T13:19:50;99609.09;;;31.43;24.43
54816;BME280;40715;55.752;37.884;2022-08-16T13:22:37;99604.16;;;31.39;23.98